Flight Track Log - Related Links

Times and Time Zones

All times are in EDT time to prevent confusion due to time zone crossing. See the SWA558 flight status page for this flight to view local times or setup timezone preferences in your user account.

Time Position Orientation Groundspeed Altitude Reporting Facility
EDT Latitude Longitude Course Direction KTS MPH feet Rate Location/Type
Fri 12:30:58 PM 26.6625 -81.6914 346° North 232 267 5,600  Level Miami Center
Fri 12:31:58 PM 26.7225 -81.7031 350° North 253 291 7,900 2,700 Climbing Miami Center
Fri 12:32:58 PM 26.7992 -81.7178 350° North 271 312 11,000 2,700 Climbing Miami Center
Fri 12:33:58 PM 26.8867 -81.7261 355° North 291 335 13,300 2,200 Climbing Miami Center
Fri 12:34:58 PM 26.9636 -81.7386 352° North 317 365 15,400 2,500 Climbing Miami Center
Fri 12:35:00 PM 27.1799 -81.7950 347° North  Level FlightAware Approximate
Fri 12:35:58 PM 27.0836 -81.7647 349° North 354 407 18,300  Level Miami Center
Fri 12:36:00 PM 27.2865 -81.8247 346° North  Level FlightAware Approximate
Fri 12:36:58 PM 27.1869 -81.7994 343° North 370 426 20,800  Level Miami Center
Fri 12:37:58 PM 27.2942 -81.8344 344° North 383 441 22,900 2,000 Climbing Miami Center
Fri 12:38:58 PM 27.4036 -81.8719 343° North 395 455 24,800 1,950 Climbing Miami Center
Fri 12:39:58 PM 27.5169 -81.9142 342° North 408 470 26,800 1,576 Climbing Miami Center
Fri 12:42:16 PM 27.8006 -82.0106 343° North 443 510 30,000 1,515 Climbing Jacksonville Center
Fri 12:43:16 PM 27.9133 -82.0119 359° North 450 518 31,800 1,850 Climbing Jacksonville Center
Fri 12:44:16 PM 28.0303 -82.0414 347° North 437 503 33,700 1,100 Climbing Jacksonville Center
Fri 12:45:16 PM 28.1308 -82.1042 331° Northwest 415 478 34,000 150 Climbing Jacksonville Center
Fri 12:46:16 PM 28.2292 -82.1694 330° Northwest 410 472 34,000 150 Level Jacksonville Center
Fri 12:47:16 PM 28.3278 -82.2322 331° Northwest 410 472 34,300 950 Climbing Jacksonville Center
Fri 12:48:16 PM 28.4303 -82.2931 332° Northwest 410 472 35,900 1,450 Climbing Jacksonville Center
Fri 12:49:16 PM 28.5267 -82.3586 329° Northwest 410 472 37,200 1,050 Climbing Jacksonville Center
Fri 12:50:16 PM 28.6250 -82.4219 331° Northwest 404 465 38,000 400 Climbing Jacksonville Center
Fri 12:51:16 PM 28.7294 -82.4878 331° Northwest 398 458 38,000  Level Jacksonville Center
Fri 12:52:16 PM 28.8297 -82.5489 332° Northwest 398 458 38,000  Level Jacksonville Center
Fri 12:53:15 PM 28.9258 -82.6150 329° Northwest 404 465 38,000  Level Jacksonville Center
Fri 12:54:16 PM 29.0264 -82.6789 331° Northwest 404 465 38,000  Level Jacksonville Center
Fri 12:55:16 PM 29.1267 -82.7428 331° Northwest 404 465 38,000  Level Jacksonville Center
Fri 12:56:16 PM 29.2228 -82.8069 330° Northwest 404 465 38,000  Level Jacksonville Center
Fri 12:57:15 PM 29.3208 -82.8711 330° Northwest 399 459 38,000  Level Jacksonville Center
Fri 12:58:16 PM 29.4211 -82.9331 332° Northwest 399 459 38,000  Level Jacksonville Center
Fri 12:59:16 PM 29.5108 -82.9953 329° Northwest 406 467 38,000  Level Jacksonville Center
Fri 01:00:16 PM 29.6067 -83.0575 331° Northwest 411 473 38,000  Level Jacksonville Center
Fri 01:01:15 PM 29.7153 -83.1056 339° North 406 467 38,000  Level Jacksonville Center
Fri 01:02:16 PM 29.8194 -83.1536 338° Northwest 406 467 38,000  Level Jacksonville Center
Fri 01:03:16 PM 29.9236 -83.2042 337° Northwest 401 461 38,000  Level Jacksonville Center
Fri 01:04:16 PM 30.0281 -83.2500 339° North 401 461 38,000  Level Jacksonville Center
Fri 01:05:16 PM 30.1364 -83.2986 339° North 406 467 38,000  Level Jacksonville Center
Fri 01:06:16 PM 30.2428 -83.3494 338° Northwest 406 467 38,000  Level Jacksonville Center
Fri 01:07:16 PM 30.3489 -83.4006 337° Northwest 411 473 38,000  Level Jacksonville Center
Fri 01:08:16 PM 30.4553 -83.4492 339° North 411 473 38,000  Level Jacksonville Center
Fri 01:09:16 PM 30.5617 -83.5006 337° Northwest 411 473 38,000  Level Jacksonville Center
Fri 01:10:16 PM 30.6678 -83.5494 338° Northwest 411 473 38,000  Level Jacksonville Center
Fri 01:11:16 PM 30.7822 -83.6036 338° Northwest 406 467 38,000  Level Jacksonville Center
Fri 01:12:16 PM 30.8844 -83.6528 338° Northwest 406 467 38,000  Level Jacksonville Center
Fri 01:13:16 PM 30.9925 -83.7044 338° Northwest 406 467 38,000  Level Jacksonville Center
Fri 01:14:16 PM 31.0989 -83.7564 337° Northwest 406 467 38,000  Level Jacksonville Center
Fri 01:15:15 PM 31.2028 -83.8058 338° Northwest 406 467 38,000  Level Jacksonville Center
Fri 01:16:16 PM 31.3089 -83.8581 337° Northwest 406 467 38,000  Level Jacksonville Center
Fri 01:18:32 PM 31.5461 -83.9658 339° North 431 496 38,000  Level Atlanta Center
Fri 01:19:32 PM 31.6653 -83.9950 348° North 426 490 38,000  Level Atlanta Center
Fri 01:20:32 PM 31.7947 -84.0242 349° North 426 490 38,000  Level Atlanta Center
Fri 01:21:32 PM 31.9136 -84.0486 350° North 431 496 38,000  Level Atlanta Center
Fri 01:22:32 PM 32.0306 -84.0731 350° North 431 496 38,000  Level Atlanta Center
Fri 01:23:32 PM 32.1453 -84.0978 350° North 431 496 38,000  Level Atlanta Center
Fri 01:24:32 PM 32.2642 -84.1247 349° North 431 496 38,000  Level Atlanta Center
Fri 01:25:32 PM 32.3811 -84.1494 350° North 431 496 38,000  Level Atlanta Center
Fri 01:26:32 PM 32.4981 -84.1792 348° North 431 496 38,000  Level Atlanta Center
Fri 01:27:32 PM 32.6169 -84.2042 350° North 431 496 38,000  Level Atlanta Center
Fri 01:28:32 PM 32.7336 -84.2339 348° North 431 496 38,000  Level Atlanta Center
Fri 01:29:32 PM 32.8403 -84.2539 351° North 431 496 38,000  Level Atlanta Center
Fri 01:30:32 PM 32.9569 -84.2839 348° North 431 496 38,000  Level Atlanta Center
Fri 01:31:32 PM 33.0864 -84.3142 349° North 431 496 38,000  Level Atlanta Center
Fri 01:32:32 PM 33.2031 -84.3392 350° North 431 496 38,000  Level Atlanta Center
Fri 01:33:32 PM 33.3200 -84.3644 350° North 425 489 38,000  Level Atlanta Center
Fri 01:34:32 PM 33.4328 -84.3922 348° North 425 489 38,000  Level Atlanta Center
Fri 01:35:32 PM 33.5475 -84.4178 349° North 414 476 38,000  Level Atlanta Center
Fri 01:36:32 PM 33.6536 -84.4456 348° North 409 471 38,000  Level Atlanta Center
Fri 01:37:32 PM 33.7747 -84.4736 349° North 416 479 38,000  Level Atlanta Center
Fri 01:38:32 PM 33.8831 -84.5017 348° North 407 468 38,000  Level Atlanta Center
Fri 01:39:32 PM 33.9769 -84.5222 350° North 419 482 38,000 -450 Level Atlanta Center
Fri 01:40:32 PM 34.1022 -84.5531 348° North 419 482 37,100 -950 Descending Atlanta Center
Fri 01:41:32 PM 34.2314 -84.5814 350° North 419 482 36,100 -1,000 Descending Atlanta Center
Fri 01:42:32 PM 34.3461 -84.6100 348° North 424 488 35,100 -950 Descending Atlanta Center
Fri 01:43:32 PM 34.4647 -84.6383 349° North 430 495 34,200 -950 Descending Atlanta Center
Fri 01:44:32 PM 34.5817 -84.6644 350° North 430 495 33,200 -950 Descending Atlanta Center
Fri 01:45:32 PM 34.6858 -84.6956 346° North 430 495 32,300 -600 Descending Atlanta Center
Fri 01:46:32 PM 34.8086 -84.7244 349° North 430 495 32,000 -150 Descending Atlanta Center
Fri 01:47:32 PM 34.9297 -84.7583 347° North 430 495 32,000  Level Atlanta Center
Fri 01:48:32 PM 35.0525 -84.7872 349° North 435 501 32,000  Level Atlanta Center
Fri 01:49:32 PM 35.1733 -84.8164 349° North 440 506 32,000  Level Atlanta Center
Fri 01:50:32 PM 35.2942 -84.8481 348° North 440 506 32,000  Level Atlanta Center
Fri 01:51:32 PM 35.4192 -84.8697 352° North 445 512 32,000  Level Atlanta Center
Fri 01:52:32 PM 35.5444 -84.8631 North 450 518 32,000 -50 Level Atlanta Center
Fri 01:53:32 PM 35.6697 -84.8517 North 444 511 31,900 -800 Descending Atlanta Center
Fri 01:54:32 PM 35.8075 -84.8478 North 444 511 30,400 -1,130 Descending Atlanta Center
Fri 01:56:59 PM 36.1217 -84.9064 351° North 470 541 28,000 -689 Descending Indianapolis Center
Fri 01:58:01 PM 36.2483 -84.9481 345° North 470 541 28,000  Level Indianapolis Center
Fri 01:59:03 PM 36.3750 -84.9900 345° North 472 543 28,000  Level Indianapolis Center
Fri 02:00:05 PM 36.5025 -85.0317 345° North 472 543 28,000  Level Indianapolis Center
Fri 02:01:07 PM 36.6522 -85.0833 345° North 466 536 28,000  Level Indianapolis Center
Fri 02:02:09 PM 36.7767 -85.1233 346° North 464 534 28,000  Level Indianapolis Center
Fri 02:03:11 PM 36.8997 -85.1664 344° North 460 529 28,000  Level Indianapolis Center
Fri 02:04:13 PM 37.0231 -85.2072 345° North 458 527 28,000  Level Indianapolis Center
Fri 02:05:15 PM 37.1475 -85.2483 345° North 459 528 28,000  Level Indianapolis Center
Fri 02:06:17 PM 37.2706 -85.2911 345° North 457 526 28,000  Level Indianapolis Center
Fri 02:07:19 PM 37.4139 -85.3394 345° North 454 522 28,000  Level Indianapolis Center
Fri 02:08:21 PM 37.5375 -85.3817 345° North 458 527 28,000 432 Level Indianapolis Center
Fri 02:09:24 PM 37.6614 -85.4153 348° North 455 524 28,900 480 Climbing Indianapolis Center
Fri 02:10:26 PM 37.7894 -85.4422 351° North 461 531 29,000 48 Climbing Indianapolis Center
Fri 02:11:28 PM 37.9233 -85.4869 345° North 470 541 29,000  Level Indianapolis Center
Fri 02:12:30 PM 38.0444 -85.5336 343° North 456 525 29,000  Level Indianapolis Center
Fri 02:13:32 PM 38.1669 -85.5794 344° North 458 527 29,000  Level Indianapolis Center
Fri 02:14:34 PM 38.2889 -85.6247 344° North 456 525 29,000  Level Indianapolis Center
Fri 02:15:35 PM 38.4094 -85.6708 343° North 451 519 29,000  Level Indianapolis Center
Fri 02:16:37 PM 38.5561 -85.7267 343° North 457 526 29,000  Level Indianapolis Center
Fri 02:17:39 PM 38.6625 -85.7694 343° North 454 522 29,000  Level Indianapolis Center
Fri 02:18:41 PM 38.7822 -85.8136 344° North 450 518 29,000  Level Indianapolis Center
Fri 02:19:43 PM 38.9314 -85.8381 353° North 452 520 29,000  Level Indianapolis Center
Fri 02:20:45 PM 39.0569 -85.8475 357° North 452 520 29,000  Level Indianapolis Center
Fri 02:21:47 PM 39.1822 -85.8489 360° North 456 525 29,000  Level Indianapolis Center
Fri 02:22:49 PM 39.3083 -85.8278 North 457 526 29,000  Level Indianapolis Center
Fri 02:23:51 PM 39.4344 -85.8339 358° North 458 527 29,000  Level Indianapolis Center
Fri 02:24:53 PM 39.5836 -85.8636 351° North 456 525 29,000  Level Indianapolis Center
Fri 02:25:56 PM 39.7075 -85.8889 351° North 455 524 29,000  Level Indianapolis Center
Fri 02:26:58 PM 39.8314 -85.9150 351° North 457 526 29,000 -1,452 Level Indianapolis Center
Fri 02:28:00 PM 39.9558 -85.9400 351° North 459 528 26,000 -2,419 Descending Indianapolis Center
Fri 02:29:02 PM 40.1061 -85.9700 351° North 459 528 24,000 -1,471 Descending Indianapolis Center
Fri 02:29:42 PM 40.1803 -85.9847 351° North 455 524 23,500 -882 Descending Chicago Center
Fri 02:30:44 PM 40.3019 -86.0097 351° North 447 514 22,500 -1,016 Descending Chicago Center
Fri 02:31:46 PM 40.4214 -86.0356 351° North 439 505 21,400 -1,016 Descending Chicago Center
Fri 02:32:48 PM 40.5394 -86.0575 352° North 432 497 20,400 -1,065 Descending Chicago Center
Fri 02:33:50 PM 40.6817 -86.0522 North 424 488 19,200 -1,016 Descending Chicago Center
Fri 02:34:52 PM 40.7875 -86.0528 360° North 421 484 18,300 -968 Descending Chicago Center
Fri 02:35:54 PM 40.8969 -86.0497 North 400 460 17,200 -1,258 Descending Chicago Center
Fri 02:36:56 PM 40.9817 -86.1403 321° Northwest 359 413 15,700 -1,680 Descending Chicago Center
Fri 02:37:59 PM 41.0089 -86.2592 287° West 338 389 13,700 -1,680 Descending Chicago Center
Fri 02:39:01 PM 41.0461 -86.3722 294° West 342 394 12,200 -1,210 Descending Chicago Center
Fri 02:40:03 PM 41.1047 -86.4697 309° West 338 389 11,200 -1,065 Descending Chicago Center
Fri 02:41:05 PM 41.1636 -86.5664 309° West 336 387 10,000 -581 Descending Chicago Center
Fri 02:42:07 PM 41.2175 -86.6575 308° West 317 365 10,000  Level Chicago Center
Fri 02:43:09 PM 41.2822 -86.7664 308° West 325 374 10,000  Level Chicago Center
Fri 02:44:11 PM 41.3386 -86.8592 309° West 326 375 10,000 -97 Level Chicago Center
Fri 02:45:13 PM 41.3878 -86.9433 308° West 298 343 9,800 -823 Descending Chicago Center
Fri 02:46:15 PM 41.4358 -87.0236 309° West 282 325 8,300 -1,645 Descending Chicago Center
Fri 02:47:17 PM 41.4717 -87.1367 293° West 288 331 6,400 -1,500 Descending Chicago Center
Fri 02:47:51 PM 41.4833 -87.2000 284° West 278 320 5,900 -1,213 Descending Chicago TRACON
Fri 02:48:51 PM 41.5000 -87.3000 283° West 273 314 4,500 -1,333 Descending Chicago TRACON
Fri 02:49:57 PM 41.5000 -87.4000 270° West 268 308 3,100 -968 Descending Chicago TRACON
Fri 02:50:24 PM 41.5128 -87.4303 299° West 269 310 3,000 -67 Descending Chicago Center
Fri 02:51:26 PM 41.5394 -87.5406 288° West 264 304 3,000  Level Chicago Center
Fri 02:52:28 PM 41.5617 -87.6344 288° West 266 306 3,000  Level Chicago Center
Fri 02:53:30 PM 41.5833 -87.7256 288° West 264 304 3,000  Level Chicago Center
Fri 02:54:32 PM 41.6022 -87.8092 287° West 253 291 3,000  Level Chicago Center
Fri 02:55:34 PM 41.6281 -87.8853 294° West 240 276 3,000 -242 Level Chicago Center
Fri 02:56:36 PM 41.6872 -87.8758 North 221 254 2,500 -361 Descending Chicago Center
Fri 02:56:57 PM 41.7000 -87.8500 56° Northeast 182 209 2,500 -439 Level Chicago TRACON
Fri 02:57:58 PM 41.7333 -87.8167 37° Northeast 154 177 1,900 -645 Descending Chicago TRACON
Fri 02:58:58 PM 41.7667 -87.7833 37° Northeast 126 145 1,200 -700 Descending Chicago TRACON

Login

Don't have an account? Register now (free) for customized features, flight alerts, and more!